createdAt,value
2022-08-12T00:02:03.693Z,19.40
2022-08-12T00:05:10.767Z,19.30
2022-08-12T00:08:30.963Z,19.30
2022-08-12T00:11:47.680Z,19.10
2022-08-12T00:14:58.718Z,19.10
2022-08-12T00:18:10.246Z,19.10
2022-08-12T00:21:21.485Z,19.10
2022-08-12T00:24:32.023Z,19.10
2022-08-12T00:27:44.129Z,19.10
2022-08-12T00:30:55.867Z,19.10
2022-08-12T00:34:06.614Z,19.10
2022-08-12T00:37:17.374Z,19.10
2022-08-12T00:40:31.037Z,19.10
2022-08-12T00:43:25.534Z,19.00
2022-08-12T00:46:32.910Z,19.00
2022-08-12T00:49:26.410Z,18.90
2022-08-12T00:52:20.788Z,19.00
2022-08-12T00:55:13.822Z,19.10
2022-08-12T00:58:07.514Z,19.20
2022-08-12T01:01:03.529Z,19.10
2022-08-12T01:04:16.230Z,19.10
2022-08-12T01:07:29.049Z,19.20
2022-08-12T01:10:39.929Z,19.20
2022-08-12T01:13:33.544Z,19.10
2022-08-12T01:16:26.547Z,19.00
2022-08-12T01:19:23.863Z,19.00
2022-08-12T01:22:34.385Z,19.00
2022-08-12T01:25:33.447Z,19.00
2022-08-12T01:28:28.281Z,19.00
2022-08-12T01:31:21.601Z,19.00
2022-08-12T01:34:36.498Z,19.00
2022-08-12T01:37:36.791Z,18.90
2022-08-12T01:40:37.283Z,18.80
2022-08-12T01:43:31.804Z,18.70
2022-08-12T01:46:58.634Z,18.50
2022-08-12T01:50:09.721Z,18.50
2022-08-12T01:53:11.318Z,18.30
2022-08-12T01:56:04.260Z,18.30
2022-08-12T01:59:19.395Z,18.30
2022-08-12T02:02:17.258Z,18.30
2022-08-12T02:05:56.056Z,18.30
2022-08-12T02:09:15.516Z,18.30
2022-08-12T02:12:34.727Z,18.40
2022-08-12T02:15:48.976Z,18.30
2022-08-12T02:19:02.748Z,18.30
2022-08-12T02:22:17.405Z,18.20
2022-08-12T02:25:26.949Z,18.10
2022-08-12T02:28:19.306Z,18.10
2022-08-12T02:31:12.675Z,18.10
2022-08-12T02:34:05.535Z,18.10
2022-08-12T02:37:02.592Z,18.00
2022-08-12T02:39:59.126Z,18.00
2022-08-12T02:43:12.243Z,17.90
2022-08-12T02:46:14.011Z,17.90
2022-08-12T02:49:15.863Z,17.90
2022-08-12T02:52:10.023Z,17.90
2022-08-12T02:55:28.844Z,17.80
2022-08-12T02:58:32.938Z,17.80
2022-08-12T03:01:33.922Z,17.70
2022-08-12T03:04:43.883Z,17.60
2022-08-12T03:07:59.551Z,17.60
2022-08-12T03:10:55.036Z,17.50
2022-08-12T03:13:52.448Z,17.50
2022-08-12T03:16:50.708Z,17.40
2022-08-12T03:20:09.304Z,17.40
2022-08-12T03:23:02.682Z,17.40
2022-08-12T03:25:58.879Z,17.50
2022-08-12T03:28:54.279Z,17.40
2022-08-12T03:31:48.409Z,17.40
2022-08-12T03:34:42.521Z,17.50
2022-08-12T03:37:36.867Z,17.50
2022-08-12T03:40:52.271Z,17.50
2022-08-12T03:44:28.637Z,17.50
2022-08-12T03:47:58.760Z,17.50
2022-08-12T03:51:10.572Z,17.40
2022-08-12T03:54:21.277Z,17.50
2022-08-12T03:57:31.870Z,17.30
2022-08-12T04:00:25.181Z,17.30
2022-08-12T04:03:37.118Z,17.50
2022-08-12T04:06:35.158Z,17.90
2022-08-12T04:09:28.953Z,18.20
2022-08-12T04:12:39.644Z,18.60
2022-08-12T04:15:32.766Z,18.80
2022-08-12T04:18:25.810Z,18.90
2022-08-12T04:21:17.986Z,18.80
2022-08-12T04:24:11.545Z,18.70
2022-08-12T04:27:09.013Z,18.60
2022-08-12T04:30:29.821Z,18.60
2022-08-12T04:33:14.610Z,18.80
2022-08-12T04:36:07.223Z,20.40
2022-08-12T04:39:00.190Z,22.60
2022-08-12T04:41:58.522Z,24.00
2022-08-12T04:44:51.180Z,25.30
2022-08-12T04:47:43.838Z,26.00
2022-08-12T04:50:38.778Z,26.00
2022-08-12T04:53:31.397Z,26.40
2022-08-12T04:56:23.978Z,27.10
2022-08-12T04:59:16.179Z,27.60
2022-08-12T05:02:09.620Z,28.60
2022-08-12T05:05:20.277Z,29.20
2022-08-12T05:08:15.861Z,29.30
2022-08-12T05:11:08.159Z,29.60
2022-08-12T05:14:01.338Z,29.70
2022-08-12T05:16:53.542Z,29.40
2022-08-12T05:19:45.694Z,29.20
2022-08-12T05:22:38.983Z,29.40
2022-08-12T05:25:31.386Z,29.40
2022-08-12T05:28:27.050Z,28.80
2022-08-12T05:31:40.402Z,28.50
2022-08-12T05:34:34.503Z,28.50
2022-08-12T05:37:26.700Z,28.10
2022-08-12T05:40:19.250Z,27.80
2022-08-12T05:43:11.467Z,26.70
2022-08-12T05:46:03.687Z,26.50
2022-08-12T05:48:56.893Z,26.30
2022-08-12T05:51:49.121Z,26.30
2022-08-12T05:54:56.992Z,26.70
2022-08-12T05:57:57.415Z,26.50
2022-08-12T06:00:49.605Z,26.60
2022-08-12T06:03:42.224Z,26.70
2022-08-12T06:06:39.118Z,26.90
2022-08-12T06:09:31.812Z,27.10
2022-08-12T06:12:24.138Z,27.40
2022-08-12T06:15:17.722Z,27.70
2022-08-12T06:18:13.916Z,27.90
2022-08-12T06:21:10.278Z,27.60
2022-08-12T06:24:04.296Z,27.50
2022-08-12T06:26:57.733Z,27.30
2022-08-12T06:30:09.446Z,27.20
2022-08-12T06:33:11.841Z,27.10
2022-08-12T06:36:20.979Z,27.20
2022-08-12T06:39:15.374Z,26.90
2022-08-12T06:42:32.061Z,26.80
2022-08-12T06:45:27.150Z,27.20
2022-08-12T06:48:38.095Z,27.40
2022-08-12T06:51:32.373Z,27.80
2022-08-12T06:54:31.764Z,28.50
2022-08-12T06:58:08.043Z,28.80
2022-08-12T07:00:39.712Z,29.30
2022-08-12T07:03:32.035Z,29.50
2022-08-12T07:06:25.343Z,29.50
2022-08-12T07:10:03.822Z,29.60
2022-08-12T07:12:31.142Z,29.80
2022-08-12T07:15:26.234Z,29.30
2022-08-12T07:18:20.038Z,28.70
2022-08-12T07:21:12.461Z,28.10
2022-08-12T07:24:05.244Z,28.30
2022-08-12T07:26:57.943Z,27.30
2022-08-12T07:29:58.359Z,27.20
2022-08-12T07:33:01.650Z,27.40
2022-08-12T07:35:55.542Z,28.10
2022-08-12T07:38:51.611Z,28.90
2022-08-12T07:41:44.593Z,28.90
2022-08-12T07:44:37.028Z,28.90
2022-08-12T07:47:30.892Z,28.60
2022-08-12T07:50:24.065Z,27.90
2022-08-12T07:53:17.029Z,28.00
2022-08-12T07:56:10.937Z,27.60
2022-08-12T07:59:03.585Z,27.50
2022-08-12T08:02:01.140Z,27.10
2022-08-12T08:04:56.321Z,26.50
2022-08-12T08:07:48.679Z,26.70
2022-08-12T08:10:41.407Z,27.00
2022-08-12T08:13:35.000Z,26.90
2022-08-12T08:16:27.178Z,27.30
2022-08-12T08:19:23.960Z,27.40
2022-08-12T08:22:16.207Z,26.80
2022-08-12T08:25:35.683Z,26.30
2022-08-12T08:28:29.627Z,26.20
2022-08-12T08:31:21.814Z,26.20
2022-08-12T08:34:27.562Z,25.90
2022-08-12T08:37:32.502Z,26.20
2022-08-12T08:40:43.691Z,26.40
2022-08-12T08:43:44.289Z,26.60
2022-08-12T08:46:38.076Z,26.50
2022-08-12T08:49:30.909Z,26.40
2022-08-12T08:52:38.940Z,26.00
2022-08-12T08:56:03.314Z,26.10
2022-08-12T08:58:46.170Z,26.50
2022-08-12T09:01:39.611Z,26.80
2022-08-12T09:05:12.014Z,26.90
2022-08-12T09:07:59.079Z,26.60
2022-08-12T09:14:33.323Z,27.10
2022-08-12T09:17:26.770Z,27.80
2022-08-12T09:20:35.349Z,27.40
2022-08-12T09:26:46.522Z,27.40
2022-08-12T09:30:10.030Z,27.80
2022-08-12T09:33:04.983Z,27.40
2022-08-12T09:36:05.618Z,27.30
2022-08-12T09:38:58.740Z,27.10
2022-08-12T09:42:33.883Z,27.10
2022-08-12T09:46:06.890Z,27.00
2022-08-12T10:03:33.205Z,28.30
2022-08-12T10:06:36.202Z,29.20
2022-08-12T10:09:57.397Z,28.80
2022-08-12T10:13:10.257Z,28.10
2022-08-12T10:16:38.575Z,28.20
2022-08-12T10:19:36.342Z,28.20
2022-08-12T10:22:48.989Z,28.40
2022-08-12T10:26:36.008Z,28.50
2022-08-12T10:30:02.903Z,28.80
2022-08-12T10:32:56.248Z,28.70
2022-08-12T10:35:49.204Z,28.70
2022-08-12T10:38:47.704Z,28.60
2022-08-12T10:41:59.848Z,28.30
2022-08-12T10:44:52.934Z,27.80
2022-08-12T10:48:19.164Z,27.50
2022-08-12T10:51:52.360Z,27.80
2022-08-12T10:54:16.990Z,28.40
2022-08-12T10:57:18.474Z,28.40
2022-08-12T11:00:31.262Z,28.20
2022-08-12T11:04:19.819Z,27.90
2022-08-12T11:07:09.187Z,27.80
2022-08-12T11:10:02.570Z,28.10
2022-08-12T11:13:00.302Z,28.00
2022-08-12T11:16:18.781Z,27.90
2022-08-12T11:19:07.462Z,27.80
2022-08-12T11:22:03.124Z,27.50
2022-08-12T11:24:55.596Z,27.10
2022-08-12T11:27:47.786Z,26.70
2022-08-12T11:30:44.493Z,26.40
2022-08-12T11:34:04.361Z,26.30
2022-08-12T11:36:53.791Z,26.60
2022-08-12T11:43:18.568Z,26.90
2022-08-12T11:46:11.813Z,26.90
2022-08-12T11:49:11.925Z,26.50
2022-08-12T11:52:54.818Z,26.60
2022-08-12T11:55:36.287Z,27.10
2022-08-12T12:00:49.037Z,27.20
2022-08-12T12:02:00.985Z,27.30
2022-08-12T12:04:56.840Z,27.60
2022-08-12T12:08:38.197Z,27.90
2022-08-12T12:11:01.237Z,28.20
2022-08-12T12:14:07.601Z,27.90
2022-08-12T12:17:03.317Z,27.80
2022-08-12T12:20:01.380Z,27.60
2022-08-12T12:22:53.568Z,27.50
2022-08-12T12:26:07.367Z,27.30
2022-08-12T12:29:00.453Z,27.20
2022-08-12T12:32:09.051Z,27.50
2022-08-12T12:35:13.487Z,27.50
2022-08-12T12:38:16.237Z,26.90
2022-08-12T12:41:16.531Z,26.70
2022-08-12T12:44:13.497Z,26.80
2022-08-12T12:47:28.866Z,27.10
2022-08-12T12:50:35.355Z,27.20
2022-08-12T12:54:06.783Z,27.40
2022-08-12T12:56:50.096Z,27.40
2022-08-12T13:00:02.270Z,27.40
2022-08-12T13:02:56.649Z,27.50
2022-08-12T13:05:53.710Z,27.40
2022-08-12T13:08:46.902Z,27.70
2022-08-12T13:11:42.119Z,28.00
2022-08-12T13:14:39.967Z,28.10
2022-08-12T13:18:02.315Z,27.60
2022-08-12T13:20:46.920Z,27.40
2022-08-12T13:23:39.929Z,27.60
2022-08-12T13:26:40.093Z,27.90
2022-08-12T13:29:33.565Z,27.70
2022-08-12T13:32:31.618Z,27.40
2022-08-12T13:35:33.299Z,27.50
2022-08-12T13:38:44.411Z,27.60
2022-08-12T13:41:47.283Z,27.40
2022-08-12T13:44:42.582Z,27.40
2022-08-12T13:47:56.301Z,27.60
2022-08-12T13:50:48.607Z,27.80
2022-08-12T13:53:57.834Z,28.00
2022-08-12T13:56:53.007Z,28.30
2022-08-12T13:59:48.361Z,27.90
2022-08-12T14:02:42.432Z,27.80
2022-08-12T14:05:38.887Z,27.90
2022-08-12T14:08:34.659Z,28.00
2022-08-12T14:11:28.083Z,28.10
2022-08-12T14:14:24.534Z,28.10
2022-08-12T14:17:19.824Z,28.10
2022-08-12T14:20:15.146Z,28.00
2022-08-12T14:24:01.437Z,27.90
2022-08-12T14:26:26.356Z,28.00
2022-08-12T14:29:37.769Z,28.00
2022-08-12T14:32:35.559Z,27.80
2022-08-12T14:35:28.124Z,27.30
2022-08-12T14:38:37.690Z,27.30
2022-08-12T14:41:37.321Z,27.40
2022-08-12T14:44:58.945Z,27.50
2022-08-12T14:47:58.448Z,27.50
2022-08-12T14:52:07.791Z,27.60
2022-08-12T14:57:23.916Z,27.90
2022-08-12T15:00:34.879Z,27.90
2022-08-12T15:03:52.757Z,27.70
2022-08-12T15:06:52.747Z,27.80
2022-08-12T15:09:45.204Z,27.80
2022-08-12T15:12:40.569Z,27.90
2022-08-12T15:15:43.804Z,27.90
2022-08-12T15:18:38.214Z,27.70
2022-08-12T15:22:37.300Z,27.60
2022-08-12T15:24:42.665Z,27.80
2022-08-12T15:28:05.240Z,27.90
2022-08-12T15:30:58.225Z,27.80
2022-08-12T15:33:51.060Z,27.80
2022-08-12T15:36:54.798Z,27.80
2022-08-12T15:40:00.682Z,27.80
2022-08-12T15:42:54.635Z,27.90
2022-08-12T15:45:47.377Z,27.90
2022-08-12T15:48:43.370Z,27.80
2022-08-12T15:51:58.155Z,27.70
2022-08-12T15:54:51.841Z,27.50
2022-08-12T15:57:55.643Z,27.50
2022-08-12T16:00:48.078Z,27.30
2022-08-12T16:04:00.668Z,27.00
2022-08-12T16:07:06.138Z,26.90
2022-08-12T16:10:06.099Z,26.70
2022-08-12T16:13:04.561Z,26.60
2022-08-12T16:16:02.676Z,26.60
2022-08-12T16:19:00.825Z,26.70
2022-08-12T16:21:59.293Z,26.80
2022-08-12T16:24:52.043Z,26.90
2022-08-12T16:27:45.924Z,26.90
2022-08-12T16:30:39.891Z,27.00
2022-08-12T16:33:56.396Z,27.00
2022-08-12T16:36:51.577Z,27.00
2022-08-12T16:39:59.677Z,26.80
2022-08-12T16:42:54.077Z,26.70
2022-08-12T16:46:23.552Z,26.70
2022-08-12T16:49:13.773Z,26.60
2022-08-12T16:52:13.661Z,26.60
2022-08-12T16:55:13.182Z,26.60
2022-08-12T16:58:27.976Z,26.60
2022-08-12T17:01:20.945Z,26.50
2022-08-12T17:04:13.283Z,26.40
2022-08-12T17:07:13.773Z,26.40
2022-08-12T17:10:08.420Z,26.30
2022-08-12T17:13:01.300Z,26.30
2022-08-12T17:16:05.417Z,26.30
2022-08-12T17:18:59.575Z,26.20
2022-08-12T17:22:01.971Z,26.20
2022-08-12T17:24:57.953Z,26.10
2022-08-12T17:27:57.026Z,26.00
2022-08-12T17:30:56.443Z,25.90
2022-08-12T17:33:55.542Z,25.90
2022-08-12T17:36:51.535Z,25.80
2022-08-12T17:40:10.079Z,25.70
2022-08-12T17:42:59.384Z,25.60
2022-08-12T17:45:52.780Z,25.50
2022-08-12T17:48:54.863Z,25.50
2022-08-12T17:52:02.760Z,25.50
2022-08-12T17:54:59.376Z,25.40
2022-08-12T17:57:55.451Z,25.60
2022-08-12T18:00:50.550Z,25.60
2022-08-12T18:04:05.568Z,25.50
2022-08-12T18:06:55.918Z,25.30
2022-08-12T18:09:48.152Z,25.20
2022-08-12T18:12:42.821Z,25.10
2022-08-12T18:16:06.237Z,25.10
2022-08-12T18:18:59.415Z,25.00
2022-08-12T18:22:01.061Z,24.80
2022-08-12T18:25:02.113Z,24.80
2022-08-12T18:28:15.600Z,24.70
2022-08-12T18:31:43.972Z,24.70
2022-08-12T18:34:48.222Z,24.70
2022-08-12T18:37:48.429Z,24.70
2022-08-12T18:40:59.710Z,24.60
2022-08-12T18:44:03.007Z,24.60
2022-08-12T18:46:59.588Z,24.50
2022-08-12T18:49:54.144Z,24.40
2022-08-12T18:52:48.426Z,24.30
2022-08-12T18:55:41.851Z,24.30
2022-08-12T18:58:59.430Z,24.20
2022-08-12T19:02:20.726Z,24.00
2022-08-12T19:05:11.655Z,23.80
2022-08-12T19:08:04.542Z,23.80
2022-08-12T19:11:16.208Z,23.70
2022-08-12T19:14:27.534Z,23.60
2022-08-12T19:17:20.684Z,23.50
2022-08-12T19:20:13.676Z,23.50
2022-08-12T19:23:07.999Z,23.40
2022-08-12T19:26:12.419Z,23.20
2022-08-12T19:29:08.265Z,23.20
2022-08-12T19:32:01.549Z,23.00
2022-08-12T19:36:06.884Z,23.00
2022-08-12T19:38:17.689Z,22.80
2022-08-12T19:41:12.379Z,22.80
2022-08-12T19:44:20.141Z,22.70
2022-08-12T19:47:18.615Z,22.70
2022-08-12T19:50:11.957Z,22.70
2022-08-12T19:53:04.548Z,22.60
2022-08-12T19:56:00.731Z,22.60
2022-08-12T19:59:18.771Z,22.60
2022-08-12T20:02:15.252Z,22.60
2022-08-12T20:06:06.333Z,22.60
2022-08-12T20:08:31.705Z,22.50
2022-08-12T20:12:11.777Z,22.40
2022-08-12T20:14:41.904Z,22.40
2022-08-12T20:17:36.304Z,22.40
2022-08-12T20:20:42.769Z,22.40
2022-08-12T20:24:00.490Z,22.40
2022-08-12T20:26:51.958Z,22.40
2022-08-12T20:29:45.581Z,22.30
2022-08-12T20:32:47.908Z,22.30
2022-08-12T20:36:14.023Z,22.30
2022-08-12T20:38:55.547Z,22.30
2022-08-12T20:41:50.907Z,22.20
2022-08-12T20:44:43.244Z,22.20
2022-08-12T20:47:42.149Z,22.10
2022-08-12T20:50:40.342Z,22.00
2022-08-12T20:53:58.614Z,22.10
2022-08-12T20:56:51.865Z,22.00
2022-08-12T20:59:47.817Z,22.00
2022-08-12T21:02:43.572Z,22.10
2022-08-12T21:06:12.973Z,22.10
2022-08-12T21:09:06.159Z,22.10
2022-08-12T21:12:01.279Z,22.00
2022-08-12T21:15:17.105Z,21.90
2022-08-12T21:18:29.124Z,21.80
2022-08-12T21:21:47.087Z,21.70
2022-08-12T21:24:36.759Z,21.70
2022-08-12T21:27:57.939Z,21.60
2022-08-12T21:31:11.467Z,21.50
2022-08-12T21:34:08.850Z,21.60
2022-08-12T21:37:13.148Z,21.60
2022-08-12T21:40:17.379Z,21.50
2022-08-12T21:43:09.865Z,21.20
2022-08-12T21:46:03.250Z,21.00
2022-08-12T21:49:04.041Z,20.60
2022-08-12T21:51:56.951Z,20.40
2022-08-12T21:54:49.186Z,20.40
2022-08-12T21:57:53.290Z,20.50
2022-08-12T22:00:47.814Z,20.40
2022-08-12T22:04:04.134Z,20.40
2022-08-12T22:07:06.900Z,20.40
2022-08-12T22:09:59.225Z,20.40
2022-08-12T22:12:51.437Z,20.50
2022-08-12T22:15:43.603Z,20.40
2022-08-12T22:18:50.335Z,20.50
2022-08-12T22:21:52.179Z,20.60
2022-08-12T22:24:46.968Z,20.60
2022-08-12T22:28:00.527Z,20.70
2022-08-12T22:31:09.858Z,20.60
2022-08-12T22:34:03.467Z,20.60
2022-08-12T22:36:55.820Z,20.60
2022-08-12T22:39:49.643Z,20.50
2022-08-12T22:43:05.635Z,20.30
2022-08-12T22:46:17.259Z,20.10
2022-08-12T22:49:12.900Z,20.10
2022-08-12T22:52:12.742Z,19.90
2022-08-12T22:55:06.236Z,19.70
2022-08-12T22:57:58.637Z,19.60
2022-08-12T23:00:53.072Z,19.60
2022-08-12T23:03:48.962Z,19.60
2022-08-12T23:06:49.302Z,19.60
2022-08-12T23:09:44.942Z,19.70
2022-08-12T23:13:13.149Z,19.90
2022-08-12T23:16:06.874Z,20.30
2022-08-12T23:19:09.755Z,20.50
2022-08-12T23:22:36.750Z,20.50
2022-08-12T23:25:21.303Z,20.60
2022-08-12T23:28:31.830Z,20.70
2022-08-12T23:31:30.394Z,20.80
2022-08-12T23:34:39.968Z,20.90
2022-08-12T23:37:46.447Z,20.90
2022-08-12T23:40:40.130Z,20.90
2022-08-12T23:43:38.988Z,20.90
2022-08-12T23:46:33.127Z,20.90
2022-08-12T23:49:57.137Z,21.00
2022-08-12T23:52:46.859Z,20.80
2022-08-12T23:55:41.002Z,20.90
2022-08-12T23:58:34.504Z,20.90
